createdAt,value
2023-04-16T00:01:44.981Z,88.34
2023-04-16T00:04:16.849Z,88.36
2023-04-16T00:06:49.318Z,88.28
2023-04-16T00:09:20.210Z,88.29
2023-04-16T00:11:53.824Z,88.23
2023-04-16T00:14:25.146Z,88.08
2023-04-16T00:16:58.943Z,88.27
2023-04-16T00:19:31.150Z,88.34
2023-04-16T00:22:03.717Z,88.18
2023-04-16T00:24:35.465Z,88.11
2023-04-16T00:27:11.732Z,88.29
2023-04-16T00:29:44.892Z,88.19
2023-04-16T00:32:18.192Z,88.07
2023-04-16T00:34:51.541Z,88.12
2023-04-16T00:37:24.797Z,88.05
2023-04-16T00:39:56.795Z,87.95
2023-04-16T00:42:29.016Z,87.85
2023-04-16T00:45:05.313Z,87.90
2023-04-16T00:47:37.789Z,87.87
2023-04-16T00:50:12.923Z,87.90
2023-04-16T00:52:49.879Z,87.83
2023-04-16T00:55:24.332Z,87.95
2023-04-16T00:57:58.486Z,87.88
2023-04-16T01:00:30.887Z,87.85
2023-04-16T01:03:04.304Z,87.94
2023-04-16T01:05:37.591Z,87.94
2023-04-16T01:08:18.290Z,87.97
2023-04-16T01:10:50.949Z,88.09
2023-04-16T01:13:23.909Z,88.10
2023-04-16T01:15:57.236Z,88.03
2023-04-16T01:18:28.954Z,88.03
2023-04-16T01:21:01.948Z,88.03
2023-04-16T01:23:35.008Z,88.19
2023-04-16T01:26:06.828Z,88.05
2023-04-16T01:28:43.846Z,88.12
2023-04-16T01:31:16.015Z,87.93
2023-04-16T01:34:09.859Z,87.88
2023-04-16T01:36:40.514Z,87.94
2023-04-16T01:39:15.207Z,87.92
2023-04-16T01:41:50.899Z,87.98
2023-04-16T01:44:26.642Z,87.80
2023-04-16T01:46:58.577Z,87.86
2023-04-16T01:49:34.942Z,87.97
2023-04-16T01:52:09.238Z,88.09
2023-04-16T01:54:42.778Z,87.86
2023-04-16T01:57:17.141Z,88.07
2023-04-16T01:59:49.877Z,87.96
2023-04-16T02:02:29.551Z,87.94
2023-04-16T02:05:03.617Z,88.12
2023-04-16T02:07:35.475Z,88.01
2023-04-16T02:10:10.617Z,88.06
2023-04-16T02:12:44.898Z,88.10
2023-04-16T02:15:19.749Z,88.04
2023-04-16T02:17:56.850Z,88.12
2023-04-16T02:20:31.913Z,88.01
2023-04-16T02:23:04.890Z,88.02
2023-04-16T02:25:43.390Z,87.79
2023-04-16T02:28:18.990Z,87.99
2023-04-16T02:30:52.750Z,87.89
2023-04-16T02:33:26.706Z,87.97
2023-04-16T02:36:06.634Z,87.99
2023-04-16T02:38:40.734Z,87.93
2023-04-16T02:41:14.830Z,88.08
2023-04-16T02:43:52.554Z,88.03
2023-04-16T02:46:25.083Z,88.18
2023-04-16T02:48:57.933Z,88.13
2023-04-16T02:51:30.063Z,88.03
2023-04-16T02:54:04.678Z,88.06
2023-04-16T02:56:39.714Z,88.18
2023-04-16T02:59:13.695Z,88.02
2023-04-16T03:01:46.884Z,88.15
2023-04-16T03:04:20.017Z,88.23
2023-04-16T03:06:51.937Z,88.25
2023-04-16T03:09:23.484Z,88.09
2023-04-16T03:11:54.747Z,88.24
2023-04-16T03:14:26.220Z,88.36
2023-04-16T03:16:59.915Z,88.26
2023-04-16T03:19:34.445Z,88.27
2023-04-16T03:22:06.918Z,88.31
2023-04-16T03:24:39.446Z,88.21
2023-04-16T03:27:13.705Z,88.19
2023-04-16T03:29:45.896Z,88.23
2023-04-16T03:32:18.915Z,88.17
2023-04-16T03:34:51.844Z,88.19
2023-04-16T03:37:24.497Z,88.24
2023-04-16T03:39:57.778Z,88.36
2023-04-16T03:42:29.827Z,88.28
2023-04-16T03:45:02.425Z,88.33
2023-04-16T03:47:37.137Z,88.23
2023-04-16T03:50:14.703Z,88.29
2023-04-16T03:52:51.833Z,88.27
2023-04-16T03:55:23.697Z,88.18
2023-04-16T03:57:55.837Z,88.33
2023-04-16T04:00:29.044Z,88.43
2023-04-16T04:03:17.364Z,88.50
2023-04-16T04:05:51.383Z,88.58
2023-04-16T04:08:32.977Z,88.39
2023-04-16T04:11:05.407Z,88.59
2023-04-16T04:13:38.850Z,88.55
2023-04-16T04:16:12.746Z,88.54
2023-04-16T04:18:45.637Z,88.45
2023-04-16T04:21:23.083Z,88.40
2023-04-16T04:23:56.202Z,88.38
2023-04-16T04:26:31.610Z,88.32
2023-04-16T04:29:04.715Z,88.23
2023-04-16T04:31:43.192Z,88.12
2023-04-16T04:34:14.737Z,88.33
2023-04-16T04:36:47.619Z,88.43
2023-04-16T04:39:21.356Z,88.34
2023-04-16T04:41:54.198Z,88.52
2023-04-16T04:44:26.185Z,88.66
2023-04-16T04:46:59.104Z,88.64
2023-04-16T04:49:32.406Z,88.61
2023-04-16T04:52:06.018Z,88.62
2023-04-16T04:54:43.872Z,88.62
2023-04-16T04:57:16.922Z,88.78
2023-04-16T04:59:49.060Z,88.81
2023-04-16T05:02:23.028Z,88.89
2023-04-16T05:04:55.924Z,88.90
2023-04-16T05:07:29.154Z,88.93
2023-04-16T05:10:01.951Z,89.07
2023-04-16T05:12:34.888Z,88.93
2023-04-16T05:15:09.046Z,88.87
2023-04-16T05:17:41.731Z,88.93
2023-04-16T05:20:14.575Z,88.97
2023-04-16T05:22:47.038Z,88.81
2023-04-16T05:25:20.865Z,88.94
2023-04-16T05:27:54.002Z,88.81
2023-04-16T05:30:26.635Z,88.58
2023-04-16T05:32:59.703Z,88.70
2023-04-16T05:35:31.626Z,88.65
2023-04-16T05:38:04.653Z,88.50
2023-04-16T05:40:37.120Z,88.48
2023-04-16T05:43:11.118Z,88.51
2023-04-16T05:45:43.644Z,88.55
2023-04-16T05:48:15.355Z,88.52
2023-04-16T05:50:46.132Z,88.31
2023-04-16T05:53:19.370Z,88.41
2023-04-16T05:55:52.270Z,88.60
2023-04-16T05:58:23.424Z,88.41
2023-04-16T06:00:55.058Z,88.27
2023-04-16T06:03:27.460Z,88.34
2023-04-16T06:05:58.256Z,88.48
2023-04-16T06:08:31.947Z,88.50
2023-04-16T06:11:05.563Z,88.50
2023-04-16T06:13:37.497Z,88.29
2023-04-16T06:16:11.435Z,88.29
2023-04-16T06:18:43.292Z,88.48
2023-04-16T06:21:16.292Z,88.31
2023-04-16T06:23:47.296Z,88.38
2023-04-16T06:26:20.202Z,88.38
2023-04-16T06:28:52.636Z,88.57
2023-04-16T06:31:27.258Z,88.44
2023-04-16T06:33:59.022Z,88.58
2023-04-16T06:36:29.320Z,88.47
2023-04-16T06:39:05.543Z,88.41
2023-04-16T06:41:36.787Z,88.55
2023-04-16T06:44:08.472Z,88.60
2023-04-16T06:46:39.739Z,88.63
2023-04-16T06:49:12.596Z,88.45
2023-04-16T06:51:46.000Z,88.42
2023-04-16T06:54:19.035Z,88.61
2023-04-16T06:56:53.280Z,88.64
2023-04-16T06:59:25.198Z,88.72
2023-04-16T07:01:57.963Z,88.87
2023-04-16T07:04:29.441Z,88.67
2023-04-16T07:07:03.065Z,88.87
2023-04-16T07:09:35.487Z,88.92
2023-04-16T07:12:13.629Z,89.12
2023-04-16T07:14:45.573Z,89.07
2023-04-16T07:17:16.549Z,89.11
2023-04-16T07:19:49.780Z,89.00
2023-04-16T07:22:22.426Z,89.08
2023-04-16T07:24:56.224Z,89.07
2023-04-16T07:27:30.135Z,89.01
2023-04-16T07:30:02.464Z,89.06
2023-04-16T07:32:34.190Z,88.89
2023-04-16T07:35:06.812Z,89.03
2023-04-16T07:37:40.083Z,88.91
2023-04-16T07:40:14.928Z,89.05
2023-04-16T07:42:48.023Z,88.92
2023-04-16T07:45:21.079Z,89.12
2023-04-16T07:47:52.030Z,89.04
2023-04-16T07:50:25.140Z,88.99
2023-04-16T07:53:00.251Z,88.99
2023-04-16T07:55:32.854Z,88.96
2023-04-16T07:58:09.066Z,89.00
2023-04-16T08:00:48.829Z,88.87
2023-04-16T08:03:24.782Z,88.69
2023-04-16T08:05:54.698Z,88.72
2023-04-16T08:08:26.774Z,88.62
2023-04-16T08:10:58.659Z,88.61
2023-04-16T08:13:37.978Z,88.68
2023-04-16T08:16:11.762Z,88.64
2023-04-16T08:18:42.376Z,88.47
2023-04-16T08:21:15.323Z,88.60
2023-04-16T08:23:47.063Z,88.66
2023-04-16T08:26:19.061Z,88.57
2023-04-16T08:28:51.679Z,88.67
2023-04-16T08:31:25.597Z,88.59
2023-04-16T08:33:57.598Z,88.52
2023-04-16T08:36:37.957Z,88.64
2023-04-16T08:39:10.557Z,88.63
2023-04-16T08:41:46.224Z,88.67
2023-04-16T08:44:27.487Z,89.07
2023-04-16T08:47:02.847Z,89.47
2023-04-16T08:49:48.939Z,89.47
2023-04-16T08:52:24.685Z,89.50
2023-04-16T08:55:04.362Z,89.45
2023-04-16T08:57:46.662Z,89.59
2023-04-16T09:00:19.457Z,89.42
2023-04-16T09:02:53.346Z,89.58
2023-04-16T09:05:26.259Z,89.18
2023-04-16T09:07:57.730Z,89.21
2023-04-16T09:10:31.218Z,89.10
2023-04-16T09:13:06.029Z,89.18
2023-04-16T09:15:39.158Z,89.14
2023-04-16T09:18:12.969Z,89.06
2023-04-16T09:20:45.984Z,89.03
2023-04-16T09:23:17.412Z,88.92
2023-04-16T09:25:50.385Z,88.67
2023-04-16T09:28:43.318Z,88.74
2023-04-16T09:31:19.697Z,88.83
2023-04-16T09:34:05.960Z,88.69
2023-04-16T09:36:39.336Z,88.70
2023-04-16T09:39:23.034Z,88.80
2023-04-16T09:41:56.404Z,88.46
2023-04-16T09:44:40.280Z,88.59
2023-04-16T09:47:13.102Z,88.49
2023-04-16T09:49:47.324Z,88.62
2023-04-16T09:52:19.769Z,88.37
2023-04-16T09:54:58.132Z,88.13
2023-04-16T09:57:32.417Z,87.78
2023-04-16T10:00:09.004Z,87.74
2023-04-16T10:02:44.540Z,87.68
2023-04-16T10:05:21.460Z,87.42
2023-04-16T10:07:55.361Z,87.39
2023-04-16T10:10:30.182Z,87.19
2023-04-16T10:13:03.813Z,87.13
2023-04-16T10:15:37.587Z,87.21
2023-04-16T10:18:12.113Z,87.13
2023-04-16T10:20:47.268Z,87.22
2023-04-16T10:23:21.694Z,86.89
2023-04-16T10:25:57.490Z,86.93
2023-04-16T10:28:31.456Z,86.75
2023-04-16T10:31:04.980Z,86.60
2023-04-16T10:33:42.324Z,86.40
2023-04-16T10:36:25.886Z,86.19
2023-04-16T10:39:01.032Z,85.85
2023-04-16T10:41:35.161Z,85.82
2023-04-16T10:44:10.716Z,85.95
2023-04-16T10:46:46.177Z,85.99
2023-04-16T10:49:20.698Z,86.00
2023-04-16T10:51:59.976Z,85.71
2023-04-16T10:54:33.292Z,85.30
2023-04-16T10:57:07.271Z,85.40
2023-04-16T10:59:43.208Z,85.14
2023-04-16T11:02:18.074Z,84.88
2023-04-16T11:04:58.609Z,84.91
2023-04-16T11:07:37.986Z,84.78
2023-04-16T11:10:16.292Z,84.64
2023-04-16T11:12:50.292Z,84.66
2023-04-16T11:15:25.354Z,84.97
2023-04-16T11:17:58.663Z,84.81
2023-04-16T11:20:31.542Z,84.63
2023-04-16T11:23:13.250Z,84.74
2023-04-16T11:25:45.774Z,84.66
2023-04-16T11:28:19.113Z,84.60
2023-04-16T11:30:52.807Z,84.51
2023-04-16T11:33:28.341Z,84.39
2023-04-16T11:36:05.314Z,84.47
2023-04-16T11:38:38.410Z,84.52
2023-04-16T11:41:23.814Z,84.52
2023-04-16T11:43:58.258Z,84.46
2023-04-16T11:46:42.759Z,84.30
2023-04-16T11:49:17.667Z,84.16
2023-04-16T11:51:51.510Z,84.35
2023-04-16T11:54:27.262Z,84.37
2023-04-16T11:57:00.181Z,84.25
2023-04-16T11:59:32.770Z,84.22
2023-04-16T12:02:05.596Z,84.17
2023-04-16T12:04:38.570Z,84.13
2023-04-16T12:07:13.756Z,84.17
2023-04-16T12:09:46.855Z,84.08
2023-04-16T12:12:32.234Z,84.22
2023-04-16T12:15:05.658Z,84.17
2023-04-16T12:17:38.998Z,84.14
2023-04-16T12:20:14.528Z,84.18
2023-04-16T12:22:49.206Z,84.40
2023-04-16T12:25:21.727Z,84.57
2023-04-16T12:27:58.144Z,84.58
2023-04-16T12:30:31.069Z,84.82
2023-04-16T12:33:20.849Z,84.80
2023-04-16T12:35:52.704Z,84.82
2023-04-16T12:38:25.772Z,84.69
2023-04-16T12:40:58.484Z,84.33
2023-04-16T12:43:30.914Z,84.41
2023-04-16T12:46:05.614Z,84.55
2023-04-16T12:48:35.715Z,84.54
2023-04-16T12:51:10.398Z,84.39
2023-04-16T12:53:42.629Z,83.81
2023-04-16T12:56:14.136Z,84.05
2023-04-16T12:58:50.211Z,83.96
2023-04-16T13:01:23.003Z,84.40
2023-04-16T13:03:55.555Z,84.24
2023-04-16T13:06:28.113Z,84.26
2023-04-16T13:08:59.040Z,84.45
2023-04-16T13:11:34.613Z,84.61
2023-04-16T13:14:06.434Z,84.84
2023-04-16T13:16:40.087Z,84.62
2023-04-16T13:19:22.424Z,84.21
2023-04-16T13:21:54.471Z,84.22
2023-04-16T13:24:26.375Z,84.52
2023-04-16T13:26:59.446Z,84.30
2023-04-16T13:29:36.757Z,84.49
2023-04-16T13:32:14.103Z,84.73
2023-04-16T13:34:46.886Z,84.68
2023-04-16T13:37:22.134Z,84.89
2023-04-16T13:39:56.444Z,84.77
2023-04-16T13:42:28.704Z,84.86
2023-04-16T13:45:02.037Z,84.88
2023-04-16T13:47:39.483Z,84.82
2023-04-16T13:50:16.754Z,85.11
2023-04-16T13:52:50.823Z,85.25
2023-04-16T13:55:25.504Z,85.41
2023-04-16T13:57:58.953Z,85.46
2023-04-16T14:00:32.513Z,85.29
2023-04-16T14:03:07.453Z,85.44
2023-04-16T14:05:39.480Z,85.10
2023-04-16T14:08:15.283Z,85.20
2023-04-16T14:10:55.837Z,85.22
2023-04-16T14:13:29.195Z,85.01
2023-04-16T14:16:01.927Z,85.24
2023-04-16T14:18:36.311Z,85.40
2023-04-16T14:21:13.092Z,85.44
2023-04-16T14:23:45.882Z,85.34
2023-04-16T14:26:16.924Z,85.15
2023-04-16T14:28:47.597Z,85.22
2023-04-16T14:31:21.760Z,85.26
2023-04-16T14:33:52.620Z,85.34
2023-04-16T14:36:25.249Z,85.35
2023-04-16T14:38:57.748Z,85.22
2023-04-16T14:41:32.332Z,85.03
2023-04-16T14:44:06.508Z,85.04
2023-04-16T14:46:41.161Z,84.96
2023-04-16T14:49:12.511Z,84.91
2023-04-16T14:51:46.179Z,84.86
2023-04-16T14:54:17.002Z,84.87
2023-04-16T14:56:49.473Z,85.16
2023-04-16T14:59:23.075Z,85.35
2023-04-16T15:01:57.078Z,85.29
2023-04-16T15:04:31.606Z,85.36
2023-04-16T15:07:05.339Z,84.99
2023-04-16T15:09:38.121Z,85.04
2023-04-16T15:12:10.484Z,85.23
2023-04-16T15:14:44.321Z,85.36
2023-04-16T15:17:34.272Z,85.40
2023-04-16T15:20:12.907Z,85.26
2023-04-16T15:22:45.325Z,85.14
2023-04-16T15:25:17.483Z,85.24
2023-04-16T15:27:50.084Z,85.10
2023-04-16T15:30:23.542Z,84.74
2023-04-16T15:33:00.280Z,84.66
2023-04-16T15:35:36.389Z,84.46
2023-04-16T15:38:10.693Z,84.61
2023-04-16T15:40:42.869Z,84.41
2023-04-16T15:43:17.154Z,84.46
2023-04-16T15:45:53.274Z,84.58
2023-04-16T15:48:27.382Z,84.55
2023-04-16T15:51:04.312Z,84.78
2023-04-16T15:53:34.888Z,84.66
2023-04-16T15:56:07.699Z,84.57
2023-04-16T15:58:44.185Z,84.56
2023-04-16T16:01:16.287Z,84.50
2023-04-16T16:03:48.429Z,84.48
2023-04-16T16:06:20.889Z,84.56
2023-04-16T16:08:51.133Z,84.42
2023-04-16T16:11:28.121Z,84.47
2023-04-16T16:14:01.112Z,84.58
2023-04-16T16:16:36.012Z,84.70
2023-04-16T16:19:09.625Z,84.84
2023-04-16T16:21:43.864Z,84.94
2023-04-16T16:24:17.032Z,85.07
2023-04-16T16:26:51.557Z,85.05
2023-04-16T16:29:25.142Z,85.24
2023-04-16T16:31:59.003Z,85.41
2023-04-16T16:34:30.960Z,85.41
2023-04-16T16:37:04.162Z,85.68
2023-04-16T16:39:38.634Z,85.79
2023-04-16T16:42:11.254Z,85.88
2023-04-16T16:44:43.127Z,85.68
2023-04-16T16:47:15.938Z,85.85
2023-04-16T16:49:48.039Z,85.88
2023-04-16T16:52:24.710Z,86.05
2023-04-16T16:54:56.873Z,86.01
2023-04-16T16:57:29.369Z,85.85
2023-04-16T17:00:01.411Z,85.95
2023-04-16T17:02:34.423Z,85.73
2023-04-16T17:05:09.582Z,85.65
2023-04-16T17:07:41.827Z,85.55
2023-04-16T17:10:19.726Z,85.71
2023-04-16T17:12:56.568Z,85.77
2023-04-16T17:15:29.578Z,85.46
2023-04-16T17:18:02.939Z,85.49
2023-04-16T17:20:37.158Z,85.40
2023-04-16T17:23:10.603Z,85.52
2023-04-16T17:25:44.203Z,85.53
2023-04-16T17:28:15.627Z,85.61
2023-04-16T17:30:51.450Z,85.41
2023-04-16T17:33:25.004Z,85.07
2023-04-16T17:35:56.959Z,85.12
2023-04-16T17:38:34.084Z,84.73
2023-04-16T17:41:09.765Z,84.67
2023-04-16T17:43:43.607Z,84.85
2023-04-16T17:46:16.434Z,84.71
2023-04-16T17:48:49.741Z,84.48
2023-04-16T17:51:21.333Z,84.44
2023-04-16T17:53:55.669Z,84.55
2023-04-16T17:56:29.336Z,84.64
2023-04-16T17:59:07.264Z,84.87
2023-04-16T18:01:39.904Z,84.82
2023-04-16T18:04:12.242Z,84.95
2023-04-16T18:06:45.762Z,84.75
2023-04-16T18:09:19.921Z,84.97
2023-04-16T18:11:57.124Z,84.96
2023-04-16T18:14:38.191Z,85.00
2023-04-16T18:17:12.529Z,84.97
2023-04-16T18:19:45.194Z,84.94
2023-04-16T18:22:19.415Z,84.80
2023-04-16T18:24:56.922Z,84.92
2023-04-16T18:27:32.556Z,85.03
2023-04-16T18:30:22.920Z,84.85
2023-04-16T18:36:11.334Z,85.06
2023-04-16T18:38:59.407Z,84.81
2023-04-16T18:41:39.108Z,85.08
2023-04-16T18:44:11.485Z,85.09
2023-04-16T18:46:43.900Z,85.18
2023-04-16T18:49:16.675Z,85.08
2023-04-16T18:51:51.867Z,85.17
2023-04-16T18:54:27.643Z,85.18
2023-04-16T18:57:00.882Z,85.26
2023-04-16T18:59:36.142Z,85.28
2023-04-16T19:02:13.197Z,85.10
2023-04-16T19:04:50.413Z,85.12
2023-04-16T19:07:27.421Z,85.34
2023-04-16T19:10:05.381Z,85.16
2023-04-16T19:12:42.951Z,85.29
2023-04-16T19:15:15.742Z,85.26
2023-04-16T19:17:51.046Z,85.44
2023-04-16T19:20:23.315Z,85.56
2023-04-16T19:22:59.583Z,85.71
2023-04-16T19:25:43.425Z,85.92
2023-04-16T19:28:19.292Z,85.90
2023-04-16T19:30:56.408Z,86.14
2023-04-16T19:33:28.675Z,86.12
2023-04-16T19:36:01.339Z,86.29
2023-04-16T19:38:58.650Z,86.35
2023-04-16T19:41:33.764Z,86.64
2023-04-16T19:44:07.503Z,86.66
2023-04-16T19:46:38.676Z,86.63
2023-04-16T19:49:12.576Z,86.66
2023-04-16T19:51:49.215Z,86.58
2023-04-16T19:54:23.653Z,86.45
2023-04-16T19:56:58.817Z,86.32
2023-04-16T19:59:37.998Z,86.55
2023-04-16T20:02:13.102Z,86.50
2023-04-16T20:04:49.717Z,86.49
2023-04-16T20:07:26.471Z,86.48
2023-04-16T20:10:00.063Z,86.48
2023-04-16T20:12:33.646Z,86.40
2023-04-16T20:15:05.389Z,86.46
2023-04-16T20:17:41.091Z,86.33
2023-04-16T20:20:15.324Z,86.31
2023-04-16T20:22:53.607Z,86.31
2023-04-16T20:25:30.752Z,86.37
2023-04-16T20:28:02.692Z,86.32
2023-04-16T20:30:39.481Z,86.32
2023-04-16T20:33:14.898Z,86.26
2023-04-16T20:35:51.766Z,86.22
2023-04-16T20:38:35.645Z,86.40
2023-04-16T20:41:10.057Z,86.41
2023-04-16T20:43:45.776Z,86.35
2023-04-16T20:46:18.905Z,86.36
2023-04-16T20:49:00.375Z,86.42
2023-04-16T20:51:36.768Z,86.39
2023-04-16T20:54:13.757Z,86.36
2023-04-16T20:56:46.544Z,86.32
2023-04-16T20:59:22.049Z,86.19
2023-04-16T21:01:55.086Z,86.36
2023-04-16T21:04:30.870Z,86.48
2023-04-16T21:07:04.769Z,86.45
2023-04-16T21:09:42.124Z,86.59
2023-04-16T21:12:12.759Z,86.71
2023-04-16T21:14:45.506Z,86.71
2023-04-16T21:17:21.193Z,86.92
2023-04-16T21:19:53.815Z,87.01
2023-04-16T21:22:28.604Z,86.95
2023-04-16T21:25:03.823Z,86.96
2023-04-16T21:27:39.550Z,87.07
2023-04-16T21:30:15.869Z,87.16
2023-04-16T21:32:50.178Z,87.25
2023-04-16T21:35:23.247Z,87.04
2023-04-16T21:37:55.952Z,87.13
2023-04-16T21:40:28.744Z,87.27
2023-04-16T21:43:01.492Z,87.27
2023-04-16T21:45:33.956Z,87.20
2023-04-16T21:48:07.185Z,86.97
2023-04-16T21:50:39.832Z,87.07
2023-04-16T21:53:10.896Z,87.27
2023-04-16T21:55:44.719Z,87.29
2023-04-16T21:58:17.894Z,87.20
2023-04-16T22:00:51.370Z,87.29
2023-04-16T22:03:27.776Z,87.16
2023-04-16T22:06:04.423Z,86.89
2023-04-16T22:08:39.564Z,86.93
2023-04-16T22:11:12.792Z,86.93
2023-04-16T22:13:45.899Z,86.96
2023-04-16T22:16:20.696Z,87.05
2023-04-16T22:18:55.549Z,86.83
2023-04-16T22:21:27.274Z,86.94
2023-04-16T22:23:59.689Z,86.87
2023-04-16T22:26:34.957Z,86.86
2023-04-16T22:29:08.991Z,86.86
2023-04-16T22:31:42.164Z,86.86
2023-04-16T22:34:14.568Z,86.99
2023-04-16T22:36:47.727Z,86.80
2023-04-16T22:39:21.322Z,87.03
2023-04-16T22:41:56.062Z,86.97
2023-04-16T22:44:28.790Z,87.00
2023-04-16T22:47:00.365Z,87.00
2023-04-16T22:49:33.408Z,86.81
2023-04-16T22:52:07.653Z,87.14
2023-04-16T22:54:40.641Z,87.17
2023-04-16T22:57:13.182Z,87.00
2023-04-16T22:59:43.644Z,87.04
2023-04-16T23:02:18.760Z,87.09
2023-04-16T23:04:52.678Z,86.92
2023-04-16T23:07:24.811Z,87.01
2023-04-16T23:09:57.208Z,87.15
2023-04-16T23:12:29.313Z,87.07
2023-04-16T23:15:07.811Z,87.13
2023-04-16T23:17:39.890Z,87.06
2023-04-16T23:20:15.708Z,87.43
2023-04-16T23:22:49.461Z,87.51
2023-04-16T23:25:23.736Z,87.39
2023-04-16T23:27:57.727Z,87.33
2023-04-16T23:30:28.476Z,87.49
2023-04-16T23:33:00.605Z,87.78
2023-04-16T23:35:33.934Z,87.52
2023-04-16T23:38:06.054Z,87.74
2023-04-16T23:40:40.619Z,87.73
2023-04-16T23:43:14.813Z,87.98
2023-04-16T23:45:48.043Z,88.16
2023-04-16T23:48:19.763Z,88.03
2023-04-16T23:50:53.084Z,88.19
2023-04-16T23:53:27.481Z,88.26
2023-04-16T23:56:00.593Z,88.00
2023-04-16T23:58:33.232Z,88.24
